Etusivu
METAR-TAF:

METAR-TAF

Lentoasemat :

Melilla, Espanja

Leveyspiiri: 35-17N, Pituuspiiri: 002-57W, korkeus merenpinnasta: 47 m

Tämänhetkinen sää

Tämä raportti tehtiin 54 minuuttia sitten, kello 04.30 UTC
Tuuli 9 kn lännestä, vaihdellen lännen ja luoteen välillä
Lämpötila 23°C
Kosteus 50%
Ilmanpaine 1013 hPa
Näkyvyys 10 km tai enemmän
ei pilviä alle 1500 m:ssä eikä cumulonimbus-pilviä

METAR: GEML 160430Z 28009KT 260V320 CAVOK 23/12 Q1013

Aika: 07:24 (05:24 UTC)

Sääennuste

Tämä raportti tehtiin 6 tuntia ja 24 minuuttia sitten, kello 23.00 UTC
Ennuste voimassa 16. päivästä klo 00 UTC - 16. päivään klo 24 UTC
Tuuli 10 kn lännestä
Näkyvyys 10 km tai enemmän
Muutamia pilviä 4500 ft:n korkeudessa
Tulossa
16. päivästä klo 19 UTC - 16. päivään klo 21 UTC
Tuuli 2 kn eri suunnista

TAF: GEML 152300Z 1600/1624 27010KT 9999 FEW045 TX29/1614Z TN22/1605Z BECMG 1619/1621 VRB02KT

Säähavainnot ja -ennusteet yli 4000 lentoasemalta (METAR- ja TAF-raportit).

Käytössä olevat sääasemat on merkitty karttaan keltaisilla ja punaisilla pisteillä.

Aseta hiiri pisteen päälle nähdäksesi sääaseman nimen.

Klikkaa sitten nähdäksesi säähavainnot ja -ennusteet.

Kartan vaihtaminen: klikkaa mustalla rastilla varustettuja vihreitä pisteitä, niin voit zoomata sisään; viivalla varustettua vihreää pistettä, niin voit zoomata ulos tai vihreitä nuolia, niin pääset viereisille kartoille.


METAR-TAF: